sensor_id;sensor_type;location;lat;lon;timestamp;P1;durP1;ratioP1;P2;durP2;ratioP2
22223;SDS011;11281;52.194;21.006;2022-11-02T00:03:04;37.90;;;16.20;;
22223;SDS011;11281;52.194;21.006;2022-11-02T00:07:05;35.47;;;15.52;;
22223;SDS011;11281;52.194;21.006;2022-11-02T00:11:07;38.65;;;15.60;;
22223;SDS011;11281;52.194;21.006;2022-11-02T00:15:09;44.97;;;15.43;;
22223;SDS011;11281;52.194;21.006;2022-11-02T00:19:12;42.78;;;16.20;;
22223;SDS011;11281;52.194;21.006;2022-11-02T00:23:13;45.25;;;16.38;;
22223;SDS011;11281;52.194;21.006;2022-11-02T00:27:16;37.00;;;16.45;;
22223;SDS011;11281;52.194;21.006;2022-11-02T00:31:18;35.55;;;15.77;;
22223;SDS011;11281;52.194;21.006;2022-11-02T00:35:19;35.90;;;15.70;;
22223;SDS011;11281;52.194;21.006;2022-11-02T00:39:21;40.50;;;17.63;;
22223;SDS011;11281;52.194;21.006;2022-11-02T00:43:23;40.90;;;16.38;;
22223;SDS011;11281;52.194;21.006;2022-11-02T00:47:25;43.45;;;16.33;;
22223;SDS011;11281;52.194;21.006;2022-11-02T00:51:27;36.80;;;14.65;;
22223;SDS011;11281;52.194;21.006;2022-11-02T00:55:29;34.28;;;15.93;;
22223;SDS011;11281;52.194;21.006;2022-11-02T00:59:31;35.92;;;16.35;;
22223;SDS011;11281;52.194;21.006;2022-11-02T01:03:38;44.50;;;17.40;;
22223;SDS011;11281;52.194;21.006;2022-11-02T01:07:41;43.72;;;16.65;;
22223;SDS011;11281;52.194;21.006;2022-11-02T01:11:42;41.08;;;16.73;;
22223;SDS011;11281;52.194;21.006;2022-11-02T01:15:45;31.95;;;13.50;;
22223;SDS011;11281;52.194;21.006;2022-11-02T01:19:47;49.63;;;16.33;;
22223;SDS011;11281;52.194;21.006;2022-11-02T01:23:51;44.72;;;18.60;;
22223;SDS011;11281;52.194;21.006;2022-11-02T01:27:52;42.05;;;16.65;;
22223;SDS011;11281;52.194;21.006;2022-11-02T01:31:54;41.67;;;18.13;;
22223;SDS011;11281;52.194;21.006;2022-11-02T01:35:56;43.15;;;17.23;;
22223;SDS011;11281;52.194;21.006;2022-11-02T01:39:59;46.40;;;18.33;;
22223;SDS011;11281;52.194;21.006;2022-11-02T01:44:00;44.50;;;16.75;;
22223;SDS011;11281;52.194;21.006;2022-11-02T01:48:03;40.67;;;17.92;;
22223;SDS011;11281;52.194;21.006;2022-11-02T01:52:05;37.08;;;14.77;;
22223;SDS011;11281;52.194;21.006;2022-11-02T01:56:29;48.28;;;17.70;;
22223;SDS011;11281;52.194;21.006;2022-11-02T02:00:33;40.97;;;17.58;;
22223;SDS011;11281;52.194;21.006;2022-11-02T02:04:34;41.58;;;16.85;;
22223;SDS011;11281;52.194;21.006;2022-11-02T02:08:38;45.50;;;15.73;;
22223;SDS011;11281;52.194;21.006;2022-11-02T02:12:44;48.60;;;16.02;;
22223;SDS011;11281;52.194;21.006;2022-11-02T02:21:20;38.30;;;16.37;;
22223;SDS011;11281;52.194;21.006;2022-11-02T02:30:55;47.53;;;16.87;;
22223;SDS011;11281;52.194;21.006;2022-11-02T02:35:10;41.13;;;16.73;;
22223;SDS011;11281;52.194;21.006;2022-11-02T02:44:19;47.42;;;17.48;;
22223;SDS011;11281;52.194;21.006;2022-11-02T02:48:23;45.08;;;17.05;;
22223;SDS011;11281;52.194;21.006;2022-11-02T02:52:26;41.53;;;18.05;;
22223;SDS011;11281;52.194;21.006;2022-11-02T02:56:33;44.58;;;17.75;;
22223;SDS011;11281;52.194;21.006;2022-11-02T03:00:40;44.22;;;17.90;;
22223;SDS011;11281;52.194;21.006;2022-11-02T03:04:43;53.88;;;18.83;;
22223;SDS011;11281;52.194;21.006;2022-11-02T03:08:47;52.88;;;20.75;;
22223;SDS011;11281;52.194;21.006;2022-11-02T03:22:01;46.90;;;18.95;;
22223;SDS011;11281;52.194;21.006;2022-11-02T03:30:23;54.53;;;19.65;;
22223;SDS011;11281;52.194;21.006;2022-11-02T03:38:55;58.75;;;22.13;;
22223;SDS011;11281;52.194;21.006;2022-11-02T03:43:07;47.70;;;19.52;;
22223;SDS011;11281;52.194;21.006;2022-11-02T03:47:10;46.35;;;19.30;;
22223;SDS011;11281;52.194;21.006;2022-11-02T03:51:17;52.88;;;20.58;;
22223;SDS011;11281;52.194;21.006;2022-11-02T03:55:25;53.00;;;19.45;;
22223;SDS011;11281;52.194;21.006;2022-11-02T03:59:33;52.15;;;19.70;;
22223;SDS011;11281;52.194;21.006;2022-11-02T04:03:37;67.03;;;20.45;;
22223;SDS011;11281;52.194;21.006;2022-11-02T04:07:43;49.50;;;18.80;;
22223;SDS011;11281;52.194;21.006;2022-11-02T04:12:07;54.50;;;23.50;;
22223;SDS011;11281;52.194;21.006;2022-11-02T04:16:27;58.78;;;22.65;;
22223;SDS011;11281;52.194;21.006;2022-11-02T04:20:28;68.32;;;21.25;;
22223;SDS011;11281;52.194;21.006;2022-11-02T04:24:30;57.92;;;21.40;;
22223;SDS011;11281;52.194;21.006;2022-11-02T04:28:51;49.72;;;20.63;;
22223;SDS011;11281;52.194;21.006;2022-11-02T04:32:53;61.05;;;21.80;;
22223;SDS011;11281;52.194;21.006;2022-11-02T04:37:13;56.38;;;20.65;;
22223;SDS011;11281;52.194;21.006;2022-11-02T04:41:33;58.45;;;23.83;;
22223;SDS011;11281;52.194;21.006;2022-11-02T04:45:43;57.95;;;22.83;;
22223;SDS011;11281;52.194;21.006;2022-11-02T04:49:45;68.60;;;23.55;;
22223;SDS011;11281;52.194;21.006;2022-11-02T04:53:47;68.60;;;23.73;;
22223;SDS011;11281;52.194;21.006;2022-11-02T04:57:50;63.47;;;23.00;;
22223;SDS011;11281;52.194;21.006;2022-11-02T05:01:52;64.90;;;23.98;;
22223;SDS011;11281;52.194;21.006;2022-11-02T05:05:54;62.97;;;22.60;;
22223;SDS011;11281;52.194;21.006;2022-11-02T05:09:55;63.63;;;23.45;;
22223;SDS011;11281;52.194;21.006;2022-11-02T05:13:57;58.47;;;22.30;;
22223;SDS011;11281;52.194;21.006;2022-11-02T05:17:59;75.82;;;24.70;;
22223;SDS011;11281;52.194;21.006;2022-11-02T05:22:00;71.07;;;25.20;;
22223;SDS011;11281;52.194;21.006;2022-11-02T05:26:04;70.13;;;24.33;;
22223;SDS011;11281;52.194;21.006;2022-11-02T05:30:09;78.65;;;24.88;;
22223;SDS011;11281;52.194;21.006;2022-11-02T05:34:11;83.13;;;25.98;;
22223;SDS011;11281;52.194;21.006;2022-11-02T05:38:12;71.95;;;25.60;;
22223;SDS011;11281;52.194;21.006;2022-11-02T05:42:14;66.13;;;24.15;;
22223;SDS011;11281;52.194;21.006;2022-11-02T05:46:16;75.57;;;24.23;;
22223;SDS011;11281;52.194;21.006;2022-11-02T05:50:19;76.35;;;24.67;;
22223;SDS011;11281;52.194;21.006;2022-11-02T05:54:21;79.03;;;25.90;;
22223;SDS011;11281;52.194;21.006;2022-11-02T05:58:22;65.78;;;24.67;;
22223;SDS011;11281;52.194;21.006;2022-11-02T06:02:24;71.90;;;23.95;;
22223;SDS011;11281;52.194;21.006;2022-11-02T06:06:26;55.13;;;22.15;;
22223;SDS011;11281;52.194;21.006;2022-11-02T06:10:28;59.22;;;22.67;;
22223;SDS011;11281;52.194;21.006;2022-11-02T06:14:31;63.42;;;21.58;;
22223;SDS011;11281;52.194;21.006;2022-11-02T06:18:33;52.38;;;20.20;;
22223;SDS011;11281;52.194;21.006;2022-11-02T06:22:39;57.13;;;20.23;;
22223;SDS011;11281;52.194;21.006;2022-11-02T06:30:46;53.92;;;20.00;;
22223;SDS011;11281;52.194;21.006;2022-11-02T06:34:49;56.05;;;19.77;;
22223;SDS011;11281;52.194;21.006;2022-11-02T06:38:51;47.20;;;17.80;;
22223;SDS011;11281;52.194;21.006;2022-11-02T06:42:56;48.90;;;18.27;;
22223;SDS011;11281;52.194;21.006;2022-11-02T06:46:58;54.08;;;18.23;;
22223;SDS011;11281;52.194;21.006;2022-11-02T06:51:00;46.47;;;17.15;;
22223;SDS011;11281;52.194;21.006;2022-11-02T06:55:04;39.20;;;15.77;;
22223;SDS011;11281;52.194;21.006;2022-11-02T06:59:06;42.28;;;16.80;;
22223;SDS011;11281;52.194;21.006;2022-11-02T07:03:08;42.67;;;15.02;;
22223;SDS011;11281;52.194;21.006;2022-11-02T07:07:11;39.03;;;14.35;;
22223;SDS011;11281;52.194;21.006;2022-11-02T07:11:13;36.97;;;15.02;;
22223;SDS011;11281;52.194;21.006;2022-11-02T07:15:19;36.97;;;15.32;;
22223;SDS011;11281;52.194;21.006;2022-11-02T07:19:21;34.55;;;14.55;;
22223;SDS011;11281;52.194;21.006;2022-11-02T07:23:23;36.92;;;14.73;;
22223;SDS011;11281;52.194;21.006;2022-11-02T07:27:25;28.73;;;13.82;;
22223;SDS011;11281;52.194;21.006;2022-11-02T07:31:27;36.88;;;14.10;;
22223;SDS011;11281;52.194;21.006;2022-11-02T07:35:30;34.95;;;13.88;;
22223;SDS011;11281;52.194;21.006;2022-11-02T07:39:33;36.50;;;15.73;;
22223;SDS011;11281;52.194;21.006;2022-11-02T07:43:35;32.05;;;14.55;;
22223;SDS011;11281;52.194;21.006;2022-11-02T07:47:46;31.77;;;14.52;;
22223;SDS011;11281;52.194;21.006;2022-11-02T07:51:49;34.65;;;14.43;;
22223;SDS011;11281;52.194;21.006;2022-11-02T07:55:51;38.03;;;15.95;;
22223;SDS011;11281;52.194;21.006;2022-11-02T07:59:53;35.63;;;15.60;;
22223;SDS011;11281;52.194;21.006;2022-11-02T08:03:55;28.42;;;14.23;;
22223;SDS011;11281;52.194;21.006;2022-11-02T08:12:09;35.03;;;15.90;;
22223;SDS011;11281;52.194;21.006;2022-11-02T08:16:11;32.00;;;14.95;;
22223;SDS011;11281;52.194;21.006;2022-11-02T08:20:12;29.30;;;14.32;;
22223;SDS011;11281;52.194;21.006;2022-11-02T08:24:14;29.10;;;14.75;;
22223;SDS011;11281;52.194;21.006;2022-11-02T08:28:17;39.05;;;15.32;;
22223;SDS011;11281;52.194;21.006;2022-11-02T08:32:23;34.50;;;15.27;;
22223;SDS011;11281;52.194;21.006;2022-11-02T08:36:25;33.03;;;14.18;;
22223;SDS011;11281;52.194;21.006;2022-11-02T08:40:26;37.35;;;15.75;;
22223;SDS011;11281;52.194;21.006;2022-11-02T08:44:28;30.95;;;14.32;;
22223;SDS011;11281;52.194;21.006;2022-11-02T08:48:30;38.85;;;16.30;;
22223;SDS011;11281;52.194;21.006;2022-11-02T08:52:36;36.22;;;15.02;;
22223;SDS011;11281;52.194;21.006;2022-11-02T08:56:38;34.78;;;15.27;;
22223;SDS011;11281;52.194;21.006;2022-11-02T09:00:40;30.42;;;14.95;;
22223;SDS011;11281;52.194;21.006;2022-11-02T09:04:42;34.97;;;14.43;;
22223;SDS011;11281;52.194;21.006;2022-11-02T09:08:44;37.13;;;15.63;;
22223;SDS011;11281;52.194;21.006;2022-11-02T09:12:46;37.20;;;14.80;;
22223;SDS011;11281;52.194;21.006;2022-11-02T09:16:51;33.50;;;15.10;;
22223;SDS011;11281;52.194;21.006;2022-11-02T09:20:53;34.85;;;14.45;;
22223;SDS011;11281;52.194;21.006;2022-11-02T09:24:54;28.23;;;14.38;;
22223;SDS011;11281;52.194;21.006;2022-11-02T09:28:56;34.60;;;14.68;;
22223;SDS011;11281;52.194;21.006;2022-11-02T09:32:59;32.20;;;14.38;;
22223;SDS011;11281;52.194;21.006;2022-11-02T09:37:03;29.55;;;13.27;;
22223;SDS011;11281;52.194;21.006;2022-11-02T09:42:09;29.33;;;13.75;;
22223;SDS011;11281;52.194;21.006;2022-11-02T09:45:52;38.92;;;15.93;;
22223;SDS011;11281;52.194;21.006;2022-11-02T09:50:01;28.65;;;15.30;;
22223;SDS011;11281;52.194;21.006;2022-11-02T09:54:21;37.17;;;16.33;;
22223;SDS011;11281;52.194;21.006;2022-11-02T09:58:38;32.15;;;15.82;;
22223;SDS011;11281;52.194;21.006;2022-11-02T10:02:46;35.40;;;14.95;;
22223;SDS011;11281;52.194;21.006;2022-11-02T10:07:04;35.22;;;16.35;;
22223;SDS011;11281;52.194;21.006;2022-11-02T10:15:50;37.60;;;15.88;;
22223;SDS011;11281;52.194;21.006;2022-11-02T10:19:59;38.10;;;15.82;;
22223;SDS011;11281;52.194;21.006;2022-11-02T10:28:35;37.22;;;16.75;;
22223;SDS011;11281;52.194;21.006;2022-11-02T10:32:41;33.70;;;16.92;;
22223;SDS011;11281;52.194;21.006;2022-11-02T10:50:38;33.58;;;16.13;;
22223;SDS011;11281;52.194;21.006;2022-11-02T10:54:32;35.40;;;17.45;;
22223;SDS011;11281;52.194;21.006;2022-11-02T10:58:34;37.08;;;17.33;;
22223;SDS011;11281;52.194;21.006;2022-11-02T11:02:39;36.90;;;17.10;;
22223;SDS011;11281;52.194;21.006;2022-11-02T11:06:41;30.67;;;15.10;;
22223;SDS011;11281;52.194;21.006;2022-11-02T11:10:43;31.10;;;16.02;;
22223;SDS011;11281;52.194;21.006;2022-11-02T11:14:50;27.60;;;13.18;;
22223;SDS011;11281;52.194;21.006;2022-11-02T11:18:58;32.00;;;14.02;;
22223;SDS011;11281;52.194;21.006;2022-11-02T11:31:22;31.52;;;13.88;;
22223;SDS011;11281;52.194;21.006;2022-11-02T11:35:27;28.83;;;14.18;;
22223;SDS011;11281;52.194;21.006;2022-11-02T11:39:36;33.67;;;15.25;;
22223;SDS011;11281;52.194;21.006;2022-11-02T11:43:41;28.95;;;14.10;;
22223;SDS011;11281;52.194;21.006;2022-11-02T11:47:45;29.48;;;13.00;;
22223;SDS011;11281;52.194;21.006;2022-11-02T11:51:57;24.40;;;12.18;;
22223;SDS011;11281;52.194;21.006;2022-11-02T11:56:00;29.17;;;14.02;;
22223;SDS011;11281;52.194;21.006;2022-11-02T12:00:22;28.77;;;13.82;;
22223;SDS011;11281;52.194;21.006;2022-11-02T12:04:33;25.70;;;12.90;;
22223;SDS011;11281;52.194;21.006;2022-11-02T12:08:39;20.63;;;11.55;;
22223;SDS011;11281;52.194;21.006;2022-11-02T12:31:25;21.45;;;10.18;;
22223;SDS011;11281;52.194;21.006;2022-11-02T12:44:45;16.15;;;8.80;;
22223;SDS011;11281;52.194;21.006;2022-11-02T12:53:19;12.07;;;8.20;;
22223;SDS011;11281;52.194;21.006;2022-11-02T12:57:37;18.98;;;9.35;;
22223;SDS011;11281;52.194;21.006;2022-11-02T13:01:40;15.55;;;8.77;;
22223;SDS011;11281;52.194;21.006;2022-11-02T13:05:50;17.98;;;9.02;;
22223;SDS011;11281;52.194;21.006;2022-11-02T13:10:05;13.85;;;9.00;;
22223;SDS011;11281;52.194;21.006;2022-11-02T13:14:19;14.35;;;8.05;;
22223;SDS011;11281;52.194;21.006;2022-11-02T13:18:48;20.73;;;8.73;;
22223;SDS011;11281;52.194;21.006;2022-11-02T13:23:42;22.05;;;9.00;;
22223;SDS011;11281;52.194;21.006;2022-11-02T13:27:25;19.05;;;8.88;;
22223;SDS011;11281;52.194;21.006;2022-11-02T13:31:36;14.88;;;8.93;;
22223;SDS011;11281;52.194;21.006;2022-11-02T13:35:48;17.75;;;8.93;;
22223;SDS011;11281;52.194;21.006;2022-11-02T13:39:52;21.55;;;9.23;;
22223;SDS011;11281;52.194;21.006;2022-11-02T13:48:55;18.60;;;9.80;;
22223;SDS011;11281;52.194;21.006;2022-11-02T13:53:04;17.38;;;8.85;;
22223;SDS011;11281;52.194;21.006;2022-11-02T14:01:48;16.92;;;9.45;;
22223;SDS011;11281;52.194;21.006;2022-11-02T14:05:55;20.90;;;10.20;;
22223;SDS011;11281;52.194;21.006;2022-11-02T14:10:04;22.85;;;10.95;;
22223;SDS011;11281;52.194;21.006;2022-11-02T14:14:18;17.75;;;10.02;;
22223;SDS011;11281;52.194;21.006;2022-11-02T14:18:26;18.48;;;9.57;;
22223;SDS011;11281;52.194;21.006;2022-11-02T14:22:31;20.33;;;11.07;;
22223;SDS011;11281;52.194;21.006;2022-11-02T14:26:33;18.48;;;10.10;;
22223;SDS011;11281;52.194;21.006;2022-11-02T14:35:17;17.15;;;8.95;;
22223;SDS011;11281;52.194;21.006;2022-11-02T14:39:50;21.38;;;9.10;;
22223;SDS011;11281;52.194;21.006;2022-11-02T14:48:41;15.68;;;7.55;;
22223;SDS011;11281;52.194;21.006;2022-11-02T14:52:58;12.48;;;6.88;;
22223;SDS011;11281;52.194;21.006;2022-11-02T14:57:04;13.57;;;7.55;;
22223;SDS011;11281;52.194;21.006;2022-11-02T15:01:18;13.05;;;7.00;;
22223;SDS011;11281;52.194;21.006;2022-11-02T15:05:54;14.13;;;7.22;;
22223;SDS011;11281;52.194;21.006;2022-11-02T15:09:52;14.37;;;7.90;;
22223;SDS011;11281;52.194;21.006;2022-11-02T15:18:38;15.60;;;7.93;;
22223;SDS011;11281;52.194;21.006;2022-11-02T15:22:41;15.65;;;7.65;;
22223;SDS011;11281;52.194;21.006;2022-11-02T15:26:50;14.43;;;8.38;;
22223;SDS011;11281;52.194;21.006;2022-11-02T15:31:00;13.93;;;8.10;;
22223;SDS011;11281;52.194;21.006;2022-11-02T15:35:12;15.53;;;7.70;;
22223;SDS011;11281;52.194;21.006;2022-11-02T15:39:21;14.93;;;7.55;;
22223;SDS011;11281;52.194;21.006;2022-11-02T15:47:47;10.88;;;6.88;;
22223;SDS011;11281;52.194;21.006;2022-11-02T16:05:23;14.93;;;7.03;;
22223;SDS011;11281;52.194;21.006;2022-11-02T16:09:34;12.15;;;7.40;;
22223;SDS011;11281;52.194;21.006;2022-11-02T16:13:39;14.35;;;8.80;;
22223;SDS011;11281;52.194;21.006;2022-11-02T16:17:40;14.73;;;7.45;;
22223;SDS011;11281;52.194;21.006;2022-11-02T16:21:42;15.55;;;8.18;;
22223;SDS011;11281;52.194;21.006;2022-11-02T16:25:44;13.70;;;7.43;;
22223;SDS011;11281;52.194;21.006;2022-11-02T16:29:48;16.60;;;7.90;;
22223;SDS011;11281;52.194;21.006;2022-11-02T16:33:51;12.90;;;7.43;;
22223;SDS011;11281;52.194;21.006;2022-11-02T16:37:55;15.15;;;7.80;;
22223;SDS011;11281;52.194;21.006;2022-11-02T16:41:57;13.40;;;8.07;;
22223;SDS011;11281;52.194;21.006;2022-11-02T16:46:00;14.68;;;8.35;;
22223;SDS011;11281;52.194;21.006;2022-11-02T16:50:26;13.98;;;8.75;;
22223;SDS011;11281;52.194;21.006;2022-11-02T16:58:45;15.23;;;9.98;;
22223;SDS011;11281;52.194;21.006;2022-11-02T17:02:49;17.77;;;9.70;;
22223;SDS011;11281;52.194;21.006;2022-11-02T17:06:52;15.35;;;7.78;;
22223;SDS011;11281;52.194;21.006;2022-11-02T17:10:58;16.58;;;8.85;;
22223;SDS011;11281;52.194;21.006;2022-11-02T17:15:15;18.08;;;9.93;;
22223;SDS011;11281;52.194;21.006;2022-11-02T17:23:44;20.35;;;10.45;;
22223;SDS011;11281;52.194;21.006;2022-11-02T17:27:47;21.60;;;11.95;;
22223;SDS011;11281;52.194;21.006;2022-11-02T17:31:54;18.55;;;10.90;;
22223;SDS011;11281;52.194;21.006;2022-11-02T17:36:04;19.45;;;10.95;;
22223;SDS011;11281;52.194;21.006;2022-11-02T17:40:08;23.00;;;12.13;;
22223;SDS011;11281;52.194;21.006;2022-11-02T17:44:13;22.40;;;11.48;;
22223;SDS011;11281;52.194;21.006;2022-11-02T17:48:17;26.40;;;13.32;;
22223;SDS011;11281;52.194;21.006;2022-11-02T17:52:19;29.17;;;16.00;;
22223;SDS011;11281;52.194;21.006;2022-11-02T17:56:21;25.63;;;14.60;;
22223;SDS011;11281;52.194;21.006;2022-11-02T18:00:23;30.15;;;16.35;;
22223;SDS011;11281;52.194;21.006;2022-11-02T18:04:27;37.78;;;18.17;;
22223;SDS011;11281;52.194;21.006;2022-11-02T18:08:29;41.33;;;18.83;;
22223;SDS011;11281;52.194;21.006;2022-11-02T18:12:57;33.97;;;18.63;;
22223;SDS011;11281;52.194;21.006;2022-11-02T18:17:00;57.38;;;26.15;;
22223;SDS011;11281;52.194;21.006;2022-11-02T18:21:01;45.83;;;24.42;;
22223;SDS011;11281;52.194;21.006;2022-11-02T18:25:04;41.75;;;19.42;;
22223;SDS011;11281;52.194;21.006;2022-11-02T18:29:07;33.25;;;16.25;;
22223;SDS011;11281;52.194;21.006;2022-11-02T18:33:09;34.08;;;16.67;;
22223;SDS011;11281;52.194;21.006;2022-11-02T18:37:12;25.05;;;14.82;;
22223;SDS011;11281;52.194;21.006;2022-11-02T18:41:13;35.00;;;16.27;;
22223;SDS011;11281;52.194;21.006;2022-11-02T18:45:29;27.83;;;14.98;;
22223;SDS011;11281;52.194;21.006;2022-11-02T18:49:30;29.60;;;14.70;;
22223;SDS011;11281;52.194;21.006;2022-11-02T18:53:32;29.15;;;14.80;;
22223;SDS011;11281;52.194;21.006;2022-11-02T18:57:34;26.20;;;14.32;;
22223;SDS011;11281;52.194;21.006;2022-11-02T19:01:36;31.38;;;15.40;;
22223;SDS011;11281;52.194;21.006;2022-11-02T19:05:37;31.92;;;15.23;;
22223;SDS011;11281;52.194;21.006;2022-11-02T19:09:57;31.05;;;17.00;;
22223;SDS011;11281;52.194;21.006;2022-11-02T19:13:58;31.77;;;18.35;;
22223;SDS011;11281;52.194;21.006;2022-11-02T19:18:00;26.40;;;15.93;;
22223;SDS011;11281;52.194;21.006;2022-11-02T19:22:01;30.33;;;15.20;;
22223;SDS011;11281;52.194;21.006;2022-11-02T19:26:04;27.20;;;14.27;;
22223;SDS011;11281;52.194;21.006;2022-11-02T19:30:06;25.60;;;13.45;;
22223;SDS011;11281;52.194;21.006;2022-11-02T19:34:08;33.20;;;14.23;;
22223;SDS011;11281;52.194;21.006;2022-11-02T19:38:10;23.67;;;12.43;;
22223;SDS011;11281;52.194;21.006;2022-11-02T19:42:12;22.52;;;12.68;;
22223;SDS011;11281;52.194;21.006;2022-11-02T19:46:14;28.00;;;14.25;;
22223;SDS011;11281;52.194;21.006;2022-11-02T19:50:19;24.17;;;12.05;;
22223;SDS011;11281;52.194;21.006;2022-11-02T19:54:20;28.33;;;12.80;;
22223;SDS011;11281;52.194;21.006;2022-11-02T19:58:22;21.48;;;11.35;;
22223;SDS011;11281;52.194;21.006;2022-11-02T20:02:27;20.42;;;10.95;;
22223;SDS011;11281;52.194;21.006;2022-11-02T20:06:33;17.48;;;10.65;;
22223;SDS011;11281;52.194;21.006;2022-11-02T20:10:38;23.50;;;10.52;;
22223;SDS011;11281;52.194;21.006;2022-11-02T20:14:41;19.27;;;9.82;;
22223;SDS011;11281;52.194;21.006;2022-11-02T20:18:43;16.13;;;9.00;;
22223;SDS011;11281;52.194;21.006;2022-11-02T20:22:47;18.38;;;10.23;;
22223;SDS011;11281;52.194;21.006;2022-11-02T20:26:50;19.02;;;9.02;;
22223;SDS011;11281;52.194;21.006;2022-11-02T20:30:56;21.85;;;8.10;;
22223;SDS011;11281;52.194;21.006;2022-11-02T20:34:58;16.10;;;8.27;;
22223;SDS011;11281;52.194;21.006;2022-11-02T20:39:00;19.65;;;9.13;;
22223;SDS011;11281;52.194;21.006;2022-11-02T20:43:06;18.33;;;8.63;;
22223;SDS011;11281;52.194;21.006;2022-11-02T20:47:08;23.45;;;9.25;;
22223;SDS011;11281;52.194;21.006;2022-11-02T20:51:11;20.83;;;8.88;;
22223;SDS011;11281;52.194;21.006;2022-11-02T20:55:13;17.05;;;8.88;;
22223;SDS011;11281;52.194;21.006;2022-11-02T20:59:14;23.80;;;9.93;;
22223;SDS011;11281;52.194;21.006;2022-11-02T21:03:17;17.73;;;8.18;;
22223;SDS011;11281;52.194;21.006;2022-11-02T21:07:19;11.95;;;7.45;;
22223;SDS011;11281;52.194;21.006;2022-11-02T21:11:21;11.55;;;6.80;;
22223;SDS011;11281;52.194;21.006;2022-11-02T21:15:42;18.70;;;7.43;;
22223;SDS011;11281;52.194;21.006;2022-11-02T21:19:43;13.98;;;6.82;;
22223;SDS011;11281;52.194;21.006;2022-11-02T21:23:46;9.35;;;5.50;;
22223;SDS011;11281;52.194;21.006;2022-11-02T21:27:50;9.15;;;6.00;;
22223;SDS011;11281;52.194;21.006;2022-11-02T21:31:52;9.45;;;6.03;;
22223;SDS011;11281;52.194;21.006;2022-11-02T21:35:54;12.32;;;6.20;;
22223;SDS011;11281;52.194;21.006;2022-11-02T21:39:56;11.27;;;5.93;;
22223;SDS011;11281;52.194;21.006;2022-11-02T21:43:57;10.70;;;5.85;;
22223;SDS011;11281;52.194;21.006;2022-11-02T21:47:59;9.32;;;6.10;;
22223;SDS011;11281;52.194;21.006;2022-11-02T21:52:01;13.50;;;8.13;;
22223;SDS011;11281;52.194;21.006;2022-11-02T21:56:07;12.52;;;7.05;;
22223;SDS011;11281;52.194;21.006;2022-11-02T22:00:12;13.75;;;7.35;;
22223;SDS011;11281;52.194;21.006;2022-11-02T22:04:15;12.52;;;6.82;;
22223;SDS011;11281;52.194;21.006;2022-11-02T22:08:24;11.60;;;6.00;;
22223;SDS011;11281;52.194;21.006;2022-11-02T22:12:38;13.65;;;6.38;;
22223;SDS011;11281;52.194;21.006;2022-11-02T22:16:59;10.30;;;5.85;;
22223;SDS011;11281;52.194;21.006;2022-11-02T22:21:00;10.40;;;5.20;;
22223;SDS011;11281;52.194;21.006;2022-11-02T22:25:01;11.77;;;6.80;;
22223;SDS011;11281;52.194;21.006;2022-11-02T22:29:03;14.65;;;5.75;;
22223;SDS011;11281;52.194;21.006;2022-11-02T22:33:05;15.50;;;5.95;;
22223;SDS011;11281;52.194;21.006;2022-11-02T22:37:08;13.20;;;6.75;;
22223;SDS011;11281;52.194;21.006;2022-11-02T22:41:39;11.23;;;6.07;;
22223;SDS011;11281;52.194;21.006;2022-11-02T22:45:45;12.48;;;6.90;;
22223;SDS011;11281;52.194;21.006;2022-11-02T22:49:47;15.88;;;6.18;;
22223;SDS011;11281;52.194;21.006;2022-11-02T22:53:49;11.40;;;6.30;;
22223;SDS011;11281;52.194;21.006;2022-11-02T22:57:54;13.52;;;7.50;;
22223;SDS011;11281;52.194;21.006;2022-11-02T23:01:55;9.07;;;5.82;;
22223;SDS011;11281;52.194;21.006;2022-11-02T23:05:58;19.15;;;7.97;;
22223;SDS011;11281;52.194;21.006;2022-11-02T23:10:00;11.88;;;6.68;;
22223;SDS011;11281;52.194;21.006;2022-11-02T23:14:22;14.55;;;5.53;;
22223;SDS011;11281;52.194;21.006;2022-11-02T23:18:24;10.52;;;6.45;;
22223;SDS011;11281;52.194;21.006;2022-11-02T23:22:45;12.52;;;6.90;;
22223;SDS011;11281;52.194;21.006;2022-11-02T23:26:47;15.32;;;8.60;;
22223;SDS011;11281;52.194;21.006;2022-11-02T23:30:48;12.77;;;6.70;;
22223;SDS011;11281;52.194;21.006;2022-11-02T23:35:08;11.00;;;5.38;;
22223;SDS011;11281;52.194;21.006;2022-11-02T23:39:29;13.77;;;6.25;;
22223;SDS011;11281;52.194;21.006;2022-11-02T23:43:49;10.20;;;5.90;;
22223;SDS011;11281;52.194;21.006;2022-11-02T23:47:51;12.70;;;6.20;;
22223;SDS011;11281;52.194;21.006;2022-11-02T23:52:00;12.43;;;6.25;;
22223;SDS011;11281;52.194;21.006;2022-11-02T23:56:20;12.05;;;6.22;;
